createdAt,value
2018-04-16T00:00:29.666Z,6.43
2018-04-16T00:02:57.684Z,6.50
2018-04-16T00:05:25.617Z,6.20
2018-04-16T00:07:53.642Z,6.77
2018-04-16T00:10:21.648Z,7.40
2018-04-16T00:12:49.662Z,6.90
2018-04-16T00:15:17.718Z,7.07
2018-04-16T00:17:45.727Z,6.83
2018-04-16T00:20:13.701Z,7.70
2018-04-16T00:22:41.685Z,6.50
2018-04-16T00:25:09.664Z,6.03
2018-04-16T00:27:37.755Z,6.20
2018-04-16T00:30:05.797Z,7.10
2018-04-16T00:35:45.453Z,6.90
2018-04-16T00:38:19.063Z,6.43
2018-04-16T00:40:52.606Z,5.90
2018-04-16T00:43:26.149Z,6.80
2018-04-16T00:45:59.632Z,6.80
2018-04-16T00:48:32.929Z,5.93
2018-04-16T00:51:06.379Z,6.17
2018-04-16T00:56:57.750Z,7.30
2018-04-16T00:59:31.302Z,7.30
2018-04-16T01:02:04.977Z,6.40
2018-04-16T01:04:39.513Z,6.73
2018-04-16T01:07:13.106Z,7.13
2018-04-16T01:09:46.607Z,7.17
2018-04-16T01:12:20.136Z,6.90
2018-04-16T01:14:53.790Z,6.83
2018-04-16T01:17:27.305Z,6.93
2018-04-16T01:20:00.831Z,6.47
2018-04-16T01:22:34.551Z,7.00
2018-04-16T01:25:08.863Z,6.80
2018-04-16T01:27:42.413Z,6.13
2018-04-16T01:30:15.879Z,5.27
2018-04-16T01:32:49.713Z,6.70
2018-04-16T01:35:24.012Z,7.23
2018-04-16T01:37:57.543Z,6.90
2018-04-16T01:40:31.225Z,6.60
2018-04-16T01:43:04.822Z,6.00
2018-04-16T01:45:39.090Z,5.60
2018-04-16T01:48:12.588Z,5.20
2018-04-16T01:50:46.278Z,5.60
2018-04-16T01:53:19.813Z,5.53
2018-04-16T01:55:54.344Z,5.60
2018-04-16T01:58:28.024Z,7.47
2018-04-16T02:01:01.699Z,6.00
2018-04-16T02:03:35.385Z,5.80
2018-04-16T02:06:09.698Z,6.87
2018-04-16T02:08:43.297Z,5.97
2018-04-16T02:11:17.109Z,6.20
2018-04-16T02:13:50.796Z,5.23
2018-04-16T02:16:24.234Z,6.67
2018-04-16T02:18:57.649Z,7.30
2018-04-16T02:21:31.220Z,5.47
2018-04-16T02:24:04.909Z,5.80
2018-04-16T02:26:39.117Z,6.47
2018-04-16T02:29:12.638Z,6.43
2018-04-16T02:31:46.344Z,6.50
2018-04-16T02:34:20.027Z,6.50
2018-04-16T02:36:53.718Z,7.43
2018-04-16T02:39:27.414Z,8.27
2018-04-16T02:42:01.106Z,9.73
2018-04-16T02:44:34.565Z,8.40
2018-04-16T02:47:08.297Z,8.70
2018-04-16T02:49:41.945Z,10.23
2018-04-16T02:55:25.562Z,9.53
2018-04-16T02:57:59.161Z,12.90
2018-04-16T03:00:32.593Z,11.03
2018-04-16T03:03:07.030Z,14.43
2018-04-16T03:05:40.807Z,17.10
2018-04-16T03:08:14.475Z,14.63
2018-04-16T03:10:48.006Z,15.03
2018-04-16T03:13:22.432Z,13.80
2018-04-16T03:15:55.950Z,10.93
2018-04-16T03:18:29.396Z,11.80
2018-04-16T03:21:03.017Z,11.47
2018-04-16T03:23:37.609Z,9.87
2018-04-16T03:26:11.115Z,11.70
2018-04-16T03:28:44.720Z,14.30
2018-04-16T03:31:18.353Z,14.00
2018-04-16T03:33:52.898Z,10.50
2018-04-16T03:39:35.373Z,10.40
2018-04-16T03:42:08.843Z,9.60
2018-04-16T03:44:42.298Z,12.03
2018-04-16T03:47:16.069Z,10.13
2018-04-16T03:49:49.496Z,10.37
2018-04-16T03:52:22.973Z,8.70
2018-04-16T03:55:01.874Z,10.20
2018-04-16T03:57:29.837Z,11.00
2018-04-16T03:59:57.852Z,10.10
2018-04-16T04:02:25.805Z,9.00
2018-04-16T04:04:53.790Z,10.00
2018-04-16T04:07:22.292Z,13.20
2018-04-16T04:09:50.217Z,21.83
2018-04-16T04:12:18.216Z,22.90
2018-04-16T04:14:46.254Z,18.30
2018-04-16T04:17:14.290Z,22.23
2018-04-16T04:19:42.220Z,19.00
2018-04-16T04:22:10.201Z,19.20
2018-04-16T04:24:49.950Z,15.93
2018-04-16T04:27:29.653Z,18.47
2018-04-16T04:30:09.333Z,18.50
2018-04-16T04:32:37.276Z,20.13
2018-04-16T04:35:05.261Z,19.47
2018-04-16T04:37:33.250Z,21.47
2018-04-16T04:40:01.335Z,17.53
2018-04-16T04:42:29.325Z,13.77
2018-04-16T04:44:57.333Z,15.80
2018-04-16T04:47:25.294Z,13.50
2018-04-16T04:49:53.272Z,11.10
2018-04-16T04:52:21.213Z,11.03
2018-04-16T04:54:49.162Z,11.37
2018-04-16T04:57:17.162Z,9.30
2018-04-16T04:59:45.188Z,15.77
2018-04-16T05:02:13.157Z,15.13
2018-04-16T05:04:41.152Z,16.80
2018-04-16T05:07:09.209Z,19.13
2018-04-16T05:09:37.590Z,18.30
2018-04-16T05:12:05.535Z,15.90
2018-04-16T05:14:33.535Z,16.57
2018-04-16T05:17:01.537Z,17.53
2018-04-16T05:19:29.589Z,15.00
2018-04-16T05:21:57.533Z,17.47
2018-04-16T05:24:25.551Z,16.47
2018-04-16T05:26:53.538Z,15.40
2018-04-16T05:29:21.508Z,18.93
2018-04-16T05:31:49.497Z,20.80
2018-04-16T05:34:17.507Z,16.93
2018-04-16T05:36:45.525Z,17.60
2018-04-16T05:39:13.513Z,26.53
2018-04-16T05:41:41.554Z,24.07
2018-04-16T05:44:09.646Z,20.50
2018-04-16T05:46:37.639Z,21.00
2018-04-16T05:49:05.661Z,43.27
2018-04-16T05:51:33.625Z,33.93
2018-04-16T05:54:01.652Z,24.97
2018-04-16T05:56:29.602Z,17.13
2018-04-16T05:58:57.556Z,27.33
2018-04-16T06:01:25.565Z,13.80
2018-04-16T06:03:53.594Z,11.83
2018-04-16T06:06:21.557Z,10.97
2018-04-16T06:08:49.590Z,11.20
2018-04-16T06:11:17.923Z,12.73
2018-04-16T06:13:45.940Z,15.27
2018-04-16T06:16:14.005Z,14.50
2018-04-16T06:18:42.029Z,14.03
2018-04-16T06:21:10.035Z,14.50
2018-04-16T06:23:38.049Z,14.13
2018-04-16T06:26:06.146Z,12.27
2018-04-16T06:28:34.170Z,12.00
2018-04-16T06:31:02.234Z,13.93
2018-04-16T06:33:30.207Z,15.17
2018-04-16T06:35:58.241Z,12.17
2018-04-16T06:38:26.272Z,15.10
2018-04-16T06:40:54.267Z,13.93
2018-04-16T06:43:22.269Z,18.90
2018-04-16T06:45:50.194Z,18.17
2018-04-16T06:48:18.164Z,16.00
2018-04-16T06:50:46.162Z,17.93
2018-04-16T06:53:14.310Z,14.27
2018-04-16T06:55:42.355Z,15.57
2018-04-16T06:58:10.367Z,16.20
2018-04-16T07:00:38.393Z,15.73
2018-04-16T07:03:06.412Z,14.93
2018-04-16T07:05:34.405Z,17.43
2018-04-16T07:08:02.419Z,20.13
2018-04-16T07:10:30.409Z,22.50
2018-04-16T07:12:58.874Z,21.63
2018-04-16T07:15:26.832Z,18.80
2018-04-16T07:17:54.929Z,17.87
2018-04-16T07:20:22.961Z,17.60
2018-04-16T07:22:50.983Z,15.10
2018-04-16T07:25:18.971Z,15.30
2018-04-16T07:27:46.992Z,16.83
2018-04-16T07:30:14.998Z,14.40
2018-04-16T07:32:42.951Z,13.47
2018-04-16T07:35:10.932Z,9.73
2018-04-16T07:37:38.953Z,12.27
2018-04-16T07:40:06.991Z,11.77
2018-04-16T07:42:34.977Z,11.73
2018-04-16T07:45:03.067Z,12.33
2018-04-16T07:47:31.073Z,13.03
2018-04-16T07:49:59.033Z,14.23
2018-04-16T07:52:27.037Z,11.80
2018-04-16T07:54:55.078Z,11.47
2018-04-16T07:57:23.020Z,13.17
2018-04-16T07:59:51.026Z,11.67
2018-04-16T08:02:18.958Z,10.63
2018-04-16T08:04:46.948Z,11.00
2018-04-16T08:07:14.981Z,9.97
2018-04-16T08:09:42.949Z,9.70
2018-04-16T08:12:11.103Z,13.20
2018-04-16T08:14:39.520Z,11.10
2018-04-16T08:17:07.478Z,11.90
2018-04-16T08:19:35.482Z,9.00
2018-04-16T08:22:03.475Z,10.40
2018-04-16T08:24:31.495Z,10.57
2018-04-16T08:26:59.512Z,8.80
2018-04-16T08:29:27.597Z,8.83
2018-04-16T08:31:55.748Z,10.50
2018-04-16T08:34:23.719Z,10.20
2018-04-16T08:36:51.755Z,9.53
2018-04-16T08:39:19.780Z,10.67
2018-04-16T08:41:47.785Z,10.77
2018-04-16T08:44:15.823Z,10.10
2018-04-16T08:46:43.846Z,9.80
2018-04-16T08:49:11.781Z,8.30
2018-04-16T08:51:39.803Z,9.17
2018-04-16T08:54:07.750Z,9.70
2018-04-16T08:56:35.810Z,12.10
2018-04-16T08:59:03.797Z,9.83
2018-04-16T09:01:31.743Z,10.20
2018-04-16T09:03:59.693Z,9.70
2018-04-16T09:06:27.708Z,9.90
2018-04-16T09:08:55.715Z,10.60
2018-04-16T09:11:23.669Z,9.67
2018-04-16T09:13:51.846Z,11.57
2018-04-16T09:16:20.355Z,11.37
2018-04-16T09:18:48.393Z,10.30
2018-04-16T09:21:16.405Z,10.43
2018-04-16T09:23:44.359Z,11.20
2018-04-16T09:26:12.315Z,9.27
2018-04-16T09:28:40.357Z,8.47
2018-04-16T09:31:08.381Z,10.53
2018-04-16T09:33:36.424Z,10.07
2018-04-16T09:36:04.379Z,9.07
2018-04-16T09:38:32.495Z,10.70
2018-04-16T09:41:00.539Z,9.70
2018-04-16T09:43:28.621Z,9.33
2018-04-16T09:45:56.643Z,10.03
2018-04-16T09:48:24.670Z,9.80
2018-04-16T09:50:52.713Z,8.50
2018-04-16T09:53:20.695Z,10.80
2018-04-16T09:55:48.643Z,10.07
2018-04-16T09:58:16.602Z,10.87
2018-04-16T10:00:50.210Z,11.00
2018-04-16T10:03:18.246Z,11.53
2018-04-16T10:05:46.338Z,11.40
2018-04-16T10:08:14.322Z,12.53
2018-04-16T10:10:42.350Z,12.30
2018-04-16T10:13:10.478Z,12.80
2018-04-16T10:15:38.516Z,12.87
2018-04-16T10:18:06.840Z,12.70
2018-04-16T10:20:34.803Z,12.87
2018-04-16T10:23:02.811Z,12.73
2018-04-16T10:25:30.850Z,12.90
2018-04-16T10:27:58.850Z,12.77
2018-04-16T10:30:26.905Z,14.97
2018-04-16T10:32:54.943Z,12.13
2018-04-16T10:35:22.998Z,12.83
2018-04-16T10:37:50.999Z,13.50
2018-04-16T10:40:19.031Z,15.40
2018-04-16T10:42:47.038Z,13.70
2018-04-16T10:45:15.113Z,14.70
2018-04-16T10:47:43.065Z,11.87
2018-04-16T10:50:11.145Z,14.60
2018-04-16T10:52:39.148Z,11.40
2018-04-16T10:55:07.165Z,11.13
2018-04-16T10:57:35.206Z,9.50
2018-04-16T11:00:03.343Z,10.70
2018-04-16T11:02:31.340Z,10.37
2018-04-16T11:04:59.374Z,7.83
2018-04-16T11:07:27.380Z,9.93
2018-04-16T11:09:55.414Z,7.30
2018-04-16T11:12:23.419Z,6.10
2018-04-16T11:14:51.367Z,5.90
2018-04-16T11:17:19.360Z,6.10
2018-04-16T11:19:48.103Z,5.80
2018-04-16T11:22:16.073Z,4.60
2018-04-16T11:24:44.102Z,4.67
2018-04-16T11:27:12.076Z,4.50
2018-04-16T11:29:40.143Z,5.50
2018-04-16T11:32:08.145Z,5.70
2018-04-16T11:34:36.136Z,5.50
2018-04-16T11:37:04.113Z,5.30
2018-04-16T11:39:32.209Z,7.40
2018-04-16T11:42:00.356Z,5.70
2018-04-16T11:44:28.355Z,5.77
2018-04-16T11:46:56.389Z,7.43
2018-04-16T11:49:24.405Z,5.90
2018-04-16T11:51:52.489Z,6.10
2018-04-16T11:54:20.427Z,5.60
2018-04-16T11:56:48.476Z,5.13
2018-04-16T11:59:16.438Z,5.10
2018-04-16T12:01:44.455Z,4.07
2018-04-16T12:04:12.489Z,4.37
2018-04-16T12:06:40.523Z,5.00
2018-04-16T12:09:08.556Z,7.27
2018-04-16T12:11:36.782Z,5.27
2018-04-16T12:14:04.776Z,3.73
2018-04-16T12:16:32.861Z,4.63
2018-04-16T12:19:00.916Z,5.97
2018-04-16T12:21:28.981Z,4.60
2018-04-16T12:23:57.062Z,4.20
2018-04-16T12:26:24.995Z,4.20
2018-04-16T12:28:53.011Z,3.90
2018-04-16T12:31:21.069Z,4.73
2018-04-16T12:33:49.112Z,4.00
2018-04-16T12:36:17.156Z,4.17
2018-04-16T12:38:45.195Z,3.47
2018-04-16T12:41:13.204Z,4.10
2018-04-16T12:43:41.309Z,4.40
2018-04-16T12:46:09.382Z,4.00
2018-04-16T12:48:37.399Z,4.37
2018-04-16T12:51:05.388Z,6.80
2018-04-16T12:53:33.357Z,7.93
2018-04-16T12:56:01.415Z,6.30
2018-04-16T12:58:29.432Z,7.17
2018-04-16T13:00:57.503Z,7.80
2018-04-16T13:03:25.538Z,7.90
2018-04-16T13:05:53.555Z,7.47
2018-04-16T13:08:21.630Z,8.70
2018-04-16T13:10:49.616Z,7.03
2018-04-16T13:13:17.631Z,6.80
2018-04-16T13:15:45.616Z,10.20
2018-04-16T13:18:13.629Z,9.73
2018-04-16T13:20:41.679Z,8.53
2018-04-16T13:23:10.118Z,9.73
2018-04-16T13:25:38.203Z,7.67
2018-04-16T13:28:06.262Z,10.83
2018-04-16T13:30:34.284Z,9.67
2018-04-16T13:33:02.899Z,10.77
2018-04-16T13:35:30.935Z,12.10
2018-04-16T13:37:59.018Z,9.83
2018-04-16T14:27:08.462Z,8.50
2018-04-16T14:29:36.508Z,9.23
2018-04-16T14:32:05.413Z,12.20
2018-04-16T14:34:33.415Z,12.77
2018-04-16T14:37:01.438Z,12.30
2018-04-16T14:39:29.398Z,17.90
2018-04-16T14:41:57.381Z,11.60
2018-04-16T14:44:25.394Z,12.10
2018-04-16T14:46:53.456Z,10.47
2018-04-16T14:49:21.469Z,9.77
2018-04-16T14:51:49.480Z,9.37
2018-04-16T14:54:17.431Z,7.80
2018-04-16T14:56:45.424Z,7.57
2018-04-16T14:59:13.568Z,7.87
2018-04-16T15:01:41.581Z,8.00
2018-04-16T15:04:09.614Z,8.60
2018-04-16T15:06:37.664Z,7.30
2018-04-16T15:09:07.583Z,10.10
2018-04-16T15:11:35.594Z,9.60
2018-04-16T15:14:03.677Z,7.23
2018-04-16T15:16:31.724Z,6.93
2018-04-16T15:18:59.718Z,7.53
2018-04-16T15:21:27.721Z,9.57
2018-04-16T15:23:55.731Z,7.60
2018-04-16T15:26:23.877Z,8.60
2018-04-16T15:28:52.340Z,10.00
2018-04-16T15:31:20.378Z,13.67
2018-04-16T15:33:48.374Z,14.10
2018-04-16T15:36:16.296Z,17.13
2018-04-16T15:38:44.338Z,20.00
2018-04-16T15:41:12.304Z,16.90
2018-04-16T15:43:41.126Z,15.70
2018-04-16T15:46:09.151Z,21.70
2018-04-16T15:48:37.681Z,27.97
2018-04-16T15:51:06.254Z,39.87
2018-04-16T15:53:34.692Z,45.73
2018-04-16T15:56:03.220Z,38.33
2018-04-16T15:58:31.436Z,15.53
2018-04-16T16:00:59.541Z,8.87
2018-04-16T16:03:27.655Z,10.00
2018-04-16T16:05:55.715Z,10.90
2018-04-16T16:08:23.715Z,13.57
2018-04-16T16:10:51.790Z,15.20
2018-04-16T16:13:19.757Z,15.03
2018-04-16T16:15:47.822Z,12.77
2018-04-16T16:18:15.854Z,15.80
2018-04-16T16:20:43.861Z,18.40
2018-04-16T16:23:12.150Z,14.63
2018-04-16T16:25:40.150Z,13.50
2018-04-16T16:28:08.134Z,14.67
2018-04-16T16:30:36.681Z,12.27
2018-04-16T16:33:04.753Z,11.10
2018-04-16T16:35:32.751Z,10.20
2018-04-16T16:38:00.750Z,11.40
2018-04-16T16:40:28.802Z,7.50
2018-04-16T16:42:56.850Z,9.70
2018-04-16T16:45:24.936Z,10.03
2018-04-16T16:47:53.022Z,8.43
2018-04-16T16:50:21.039Z,9.27
2018-04-16T16:52:49.043Z,10.47
2018-04-16T16:55:17.140Z,11.17
2018-04-16T16:57:45.191Z,12.87
2018-04-16T17:00:13.229Z,10.83
2018-04-16T17:02:41.293Z,14.43
2018-04-16T17:05:09.314Z,15.97
2018-04-16T17:07:37.400Z,18.90
2018-04-16T17:10:05.461Z,14.03
2018-04-16T17:12:33.882Z,8.07
2018-04-16T17:15:01.926Z,7.60
2018-04-16T17:17:29.995Z,4.07
2018-04-16T17:19:57.972Z,7.70
2018-04-16T17:22:25.953Z,5.50
2018-04-16T17:24:53.984Z,8.13
2018-04-16T17:27:21.998Z,7.40
2018-04-16T17:29:49.986Z,7.03
2018-04-16T17:32:18.397Z,7.23
2018-04-16T17:34:46.448Z,8.03
2018-04-16T17:37:14.470Z,6.00
2018-04-16T17:39:42.464Z,5.03
2018-04-16T17:42:10.449Z,6.50
2018-04-16T17:44:38.410Z,4.90
2018-04-16T17:47:06.457Z,5.70
2018-04-16T17:49:34.963Z,5.73
2018-04-16T17:52:02.959Z,7.60
2018-04-16T17:54:30.981Z,6.03
2018-04-16T17:56:58.966Z,5.90
2018-04-16T17:59:27.024Z,4.53
2018-04-16T18:01:55.074Z,5.73
2018-04-16T18:04:23.095Z,6.00
2018-04-16T18:06:51.194Z,6.00
2018-04-16T18:09:19.229Z,6.60
2018-04-16T18:11:47.239Z,8.27
2018-04-16T18:14:15.400Z,5.83
2018-04-16T18:16:43.401Z,6.50
2018-04-16T18:19:11.448Z,5.73
2018-04-16T18:21:39.505Z,5.33
2018-04-16T18:24:07.573Z,5.17
2018-04-16T18:26:35.606Z,5.27
2018-04-16T18:29:03.658Z,5.63
2018-04-16T18:31:31.673Z,5.13
2018-04-16T18:34:00.011Z,5.57
2018-04-16T18:36:28.081Z,5.87
2018-04-16T18:38:56.163Z,5.50
2018-04-16T18:41:24.201Z,7.07
2018-04-16T18:43:52.217Z,5.77
2018-04-16T18:46:20.249Z,5.57
2018-04-16T18:48:48.208Z,5.40
2018-04-16T18:51:16.295Z,4.67
2018-04-16T18:53:44.297Z,5.87
2018-04-16T18:56:12.287Z,6.83
2018-04-16T18:58:40.348Z,5.20
2018-04-16T19:01:08.447Z,7.00
2018-04-16T19:03:36.479Z,5.70
2018-04-16T19:06:04.693Z,8.00
2018-04-16T19:08:32.736Z,7.73
2018-04-16T19:11:00.746Z,6.80
2018-04-16T19:13:28.732Z,7.03
2018-04-16T19:15:56.966Z,6.47
2018-04-16T19:18:24.945Z,3.97
2018-04-16T19:20:58.650Z,6.13
2018-04-16T19:23:26.782Z,3.87
2018-04-16T19:25:54.818Z,5.40
2018-04-16T19:28:22.785Z,4.90
2018-04-16T19:30:50.872Z,7.80
2018-04-16T19:33:24.433Z,3.43
2018-04-16T19:35:53.060Z,7.37
2018-04-16T19:38:21.042Z,4.40
2018-04-16T19:40:49.061Z,6.43
2018-04-16T19:43:17.066Z,6.03
2018-04-16T19:45:45.165Z,4.30
2018-04-16T19:48:13.206Z,5.30
2018-04-16T19:50:41.301Z,4.27
2018-04-16T19:53:09.338Z,4.37
2018-04-16T19:55:43.024Z,4.07
2018-04-16T19:58:16.717Z,5.10
2018-04-16T20:00:44.766Z,4.67
2018-04-16T20:03:18.395Z,3.80
2018-04-16T20:05:46.603Z,4.30
2018-04-16T20:08:14.772Z,4.80
2018-04-16T20:10:42.827Z,5.00
2018-04-16T20:13:10.864Z,4.80
2018-04-16T20:15:38.867Z,4.30
2018-04-16T20:18:06.827Z,4.33
2018-04-16T20:20:34.849Z,4.63
2018-04-16T20:23:02.901Z,4.00
2018-04-16T20:25:30.873Z,5.43
2018-04-16T20:27:58.886Z,5.00
2018-04-16T20:30:26.878Z,4.50
2018-04-16T20:32:54.885Z,4.40
2018-04-16T20:35:22.911Z,4.50
2018-04-16T20:37:51.188Z,3.90
2018-04-16T20:40:19.162Z,4.93
2018-04-16T20:42:47.227Z,5.37
2018-04-16T20:45:15.222Z,3.87
2018-04-16T20:47:43.279Z,5.23
2018-04-16T20:50:11.341Z,7.30
2018-04-16T20:52:39.442Z,7.33
2018-04-16T20:55:07.528Z,7.17
2018-04-16T20:57:35.549Z,6.40
2018-04-16T21:00:03.713Z,5.93
2018-04-16T21:02:31.710Z,5.27
2018-04-16T21:04:59.730Z,6.83
2018-04-16T21:07:27.777Z,6.07
2018-04-16T21:09:55.824Z,6.50
2018-04-16T21:12:23.838Z,6.47
2018-04-16T21:14:51.846Z,5.97
2018-04-16T21:17:19.878Z,5.83
2018-04-16T21:19:47.896Z,5.70
2018-04-16T21:22:15.896Z,5.47
2018-04-16T21:24:43.877Z,5.23
2018-04-16T21:27:11.929Z,4.63
2018-04-16T21:29:39.992Z,4.47
2018-04-16T21:32:07.998Z,5.30
2018-04-16T21:34:36.047Z,5.13
2018-04-16T21:37:04.061Z,7.53
2018-04-16T21:39:32.604Z,7.63
2018-04-16T21:42:00.608Z,8.67
2018-04-16T21:44:28.602Z,8.10
2018-04-16T21:46:56.646Z,8.03
2018-04-16T21:49:24.636Z,6.83
2018-04-16T21:51:52.680Z,6.00
2018-04-16T21:54:20.673Z,7.57
2018-04-16T21:56:48.764Z,6.73
2018-04-16T21:59:16.768Z,7.13
2018-04-16T22:01:44.732Z,5.43
2018-04-16T22:04:12.749Z,5.90
2018-04-16T22:06:40.732Z,6.27
2018-04-16T22:09:08.784Z,7.00
2018-04-16T22:11:36.788Z,4.87
2018-04-16T22:14:04.844Z,5.77
2018-04-16T22:16:32.935Z,7.70
2018-04-16T22:19:00.954Z,4.97
2018-04-16T22:21:28.993Z,6.00
2018-04-16T22:23:56.982Z,6.20
2018-04-16T22:26:25.006Z,6.83
2018-04-16T22:28:53.118Z,6.70
2018-04-16T22:31:21.153Z,7.40
2018-04-16T22:33:49.219Z,5.60
2018-04-16T22:36:17.269Z,7.87
2018-04-16T22:38:45.307Z,7.67
2018-04-16T22:41:13.650Z,6.27
2018-04-16T22:43:41.651Z,5.53
2018-04-16T22:46:09.695Z,6.00
2018-04-16T22:48:37.723Z,6.33
2018-04-16T22:51:05.722Z,6.70
2018-04-16T22:53:33.731Z,6.80
2018-04-16T22:56:01.828Z,6.03
2018-04-16T22:58:29.879Z,6.77
2018-04-16T23:00:57.857Z,6.20
2018-04-16T23:03:25.840Z,7.57
2018-04-16T23:05:53.860Z,5.50
2018-04-16T23:08:21.872Z,6.50
2018-04-16T23:10:49.906Z,5.90
2018-04-16T23:13:17.874Z,6.13
2018-04-16T23:15:45.864Z,5.13
2018-04-16T23:18:13.893Z,6.40
2018-04-16T23:20:41.939Z,5.23
2018-04-16T23:23:09.906Z,5.60
2018-04-16T23:25:37.883Z,6.30
2018-04-16T23:28:05.927Z,6.63
2018-04-16T23:30:33.909Z,6.90
2018-04-16T23:33:01.955Z,5.10
2018-04-16T23:35:29.965Z,5.80
2018-04-16T23:37:58.037Z,6.50
2018-04-16T23:40:26.030Z,6.37
2018-04-16T23:42:54.405Z,5.17
2018-04-16T23:45:22.429Z,7.30
2018-04-16T23:47:50.387Z,6.97
2018-04-16T23:50:18.378Z,6.00
2018-04-16T23:52:46.397Z,5.47
2018-04-16T23:55:14.340Z,5.97
2018-04-16T23:57:42.355Z,6.50
